Peru, IL (61354)

1:24 AM CDT on August 29, 2015 (GMT -0500)
Baker Lake | | Change Station
CLOSE
Current Station
Personal Weather Station
Location: Peru, IL
Elevation: 652 ft
Nearby Weather Stations

Elev 652 ft 41.34 °N, 89.11 °W | Updated 3 minutes ago

Overcast
Overcast
67.9 °F
Feels Like 67.9 °F
N
3.0
Wind Variable Wind from SE
Gusts 3.0 mph

Today
High -- | Low -- °F
--% Chance of Precip.
Yesterday
High -- | Low -- °F
Precip. -- in
6:19 AM 7:34 PM
Full, 100% visible
Pressure 30.06 in
Visibility 10.0 miles
Clouds Scattered Clouds 7500 ft
Scattered Clouds 8000 ft
Overcast 10000 ft
Dew Point 62 °F
Humidity 82%
Rainfall 0.00 in
Snow Depth Not available.
UV 0 out of 12
Pollen 10.50 out of 12
Air Quality Not available.
Flu Activity Not available.
METAR KVYS 290615Z AUTO 13006KT 10SM SCT075 SCT080 OVC100 20/16 A3006 RMK AO2 T01950155
Pressure 30.06 in
Visibility 10.0 miles
Clouds Scattered Clouds 7500 ft
Scattered Clouds 8000 ft
Overcast 10000 ft
Dew Point 62 °F
Humidity 82%
Rainfall 0.00 in
Snow Depth Not available.
UV 0 out of 12
Pollen 10.50 out of 12
Air Quality Not available.
Flu Activity Not available.
METAR KVYS 290615Z AUTO 13006KT 10SM SCT075 SCT080 OVC100 20/16 A3006 RMK AO2 T01950155

10-Day Weather Forecast

×

Almanac

Astronomy

Aug. 29, 2015 Rise Set
Actual Time
Civil Twilight
Nautical Twilight
Astronomical Twilight
Moon
Length of Visible Light
Length of Day
Tomorrow will be .
, % of the Moon is Illuminated

Today's Extremes

State Highs State Lows

Community

WunderPhotos

Upload Photos

1,850,622 photos uploaded!

WunderBlogs® & News

Nearby

Air Quality

  Air Quality AQ Index Pollutant
Not available.

Snow Depth

Station Depth Elevation

Earthquake Activity

City Distance Mag. Time & Date
Minimum magnitude displayed is 2.5.

Coastal Water Temperatures

Place Temperature

Stations

Nearby Weather Stations

Station Location Temp. Windchill Dew Point Humidity Wind Precip. Elev Updated Type